sensor_id;sensor_type;location;lat;lon;timestamp;P1;durP1;ratioP1;P2;durP2;ratioP2
6199;SDS011;3133;43.214;27.906;2023-02-11T00:00:54;11.70;;;7.47;;
6199;SDS011;3133;43.214;27.906;2023-02-11T00:03:22;10.53;;;6.10;;
6199;SDS011;3133;43.214;27.906;2023-02-11T00:05:56;10.23;;;6.77;;
6199;SDS011;3133;43.214;27.906;2023-02-11T00:08:33;16.30;;;7.20;;
6199;SDS011;3133;43.214;27.906;2023-02-11T00:11:00;13.77;;;7.83;;
6199;SDS011;3133;43.214;27.906;2023-02-11T00:13:28;11.80;;;7.27;;
6199;SDS011;3133;43.214;27.906;2023-02-11T00:15:55;12.07;;;8.07;;
6199;SDS011;3133;43.214;27.906;2023-02-11T00:18:22;17.53;;;8.73;;
6199;SDS011;3133;43.214;27.906;2023-02-11T00:20:49;19.20;;;8.37;;
6199;SDS011;3133;43.214;27.906;2023-02-11T00:23:16;13.27;;;7.90;;
6199;SDS011;3133;43.214;27.906;2023-02-11T00:25:43;19.53;;;8.73;;
6199;SDS011;3133;43.214;27.906;2023-02-11T00:28:11;11.10;;;7.47;;
6199;SDS011;3133;43.214;27.906;2023-02-11T00:30:39;16.47;;;9.33;;
6199;SDS011;3133;43.214;27.906;2023-02-11T00:33:06;11.33;;;7.93;;
6199;SDS011;3133;43.214;27.906;2023-02-11T00:35:35;21.43;;;10.00;;
6199;SDS011;3133;43.214;27.906;2023-02-11T00:38:02;11.10;;;7.30;;
6199;SDS011;3133;43.214;27.906;2023-02-11T00:40:29;16.00;;;7.93;;
6199;SDS011;3133;43.214;27.906;2023-02-11T00:42:56;14.47;;;8.60;;
6199;SDS011;3133;43.214;27.906;2023-02-11T00:45:23;14.07;;;8.57;;
6199;SDS011;3133;43.214;27.906;2023-02-11T00:47:51;10.77;;;7.53;;
6199;SDS011;3133;43.214;27.906;2023-02-11T00:50:18;18.73;;;8.43;;
6199;SDS011;3133;43.214;27.906;2023-02-11T00:52:45;14.47;;;7.30;;
6199;SDS011;3133;43.214;27.906;2023-02-11T00:55:12;12.33;;;8.10;;
6199;SDS011;3133;43.214;27.906;2023-02-11T00:57:39;11.63;;;7.60;;
6199;SDS011;3133;43.214;27.906;2023-02-11T01:00:06;11.77;;;7.50;;
6199;SDS011;3133;43.214;27.906;2023-02-11T01:02:34;14.63;;;8.70;;
6199;SDS011;3133;43.214;27.906;2023-02-11T01:05:03;11.23;;;7.73;;
6199;SDS011;3133;43.214;27.906;2023-02-11T01:07:30;12.57;;;8.10;;
6199;SDS011;3133;43.214;27.906;2023-02-11T01:09:57;21.07;;;8.37;;
6199;SDS011;3133;43.214;27.906;2023-02-11T01:12:24;25.00;;;9.03;;
6199;SDS011;3133;43.214;27.906;2023-02-11T01:14:51;14.10;;;9.20;;
6199;SDS011;3133;43.214;27.906;2023-02-11T01:17:18;15.60;;;9.20;;
6199;SDS011;3133;43.214;27.906;2023-02-11T01:19:45;25.50;;;9.33;;
6199;SDS011;3133;43.214;27.906;2023-02-11T01:22:13;12.97;;;8.43;;
6199;SDS011;3133;43.214;27.906;2023-02-11T01:24:40;18.30;;;9.93;;
6199;SDS011;3133;43.214;27.906;2023-02-11T01:27:07;10.83;;;7.40;;
6199;SDS011;3133;43.214;27.906;2023-02-11T01:29:36;13.90;;;7.83;;
6199;SDS011;3133;43.214;27.906;2023-02-11T01:32:03;17.37;;;7.83;;
6199;SDS011;3133;43.214;27.906;2023-02-11T01:34:30;16.80;;;8.68;;
6199;SDS011;3133;43.214;27.906;2023-02-11T01:36:57;13.73;;;7.85;;
6199;SDS011;3133;43.214;27.906;2023-02-11T01:39:26;11.90;;;8.20;;
6199;SDS011;3133;43.214;27.906;2023-02-11T01:41:53;14.33;;;8.00;;
6199;SDS011;3133;43.214;27.906;2023-02-11T01:44:21;11.00;;;7.70;;
6199;SDS011;3133;43.214;27.906;2023-02-11T01:46:50;14.93;;;7.93;;
6199;SDS011;3133;43.214;27.906;2023-02-11T01:49:17;15.83;;;8.10;;
6199;SDS011;3133;43.214;27.906;2023-02-11T01:51:50;10.17;;;6.53;;
6199;SDS011;3133;43.214;27.906;2023-02-11T01:54:23;19.53;;;8.13;;
6199;SDS011;3133;43.214;27.906;2023-02-11T01:57:13;10.10;;;6.30;;
6199;SDS011;3133;43.214;27.906;2023-02-11T01:59:53;10.80;;;5.87;;
6199;SDS011;3133;43.214;27.906;2023-02-11T02:02:28;22.40;;;7.83;;
6199;SDS011;3133;43.214;27.906;2023-02-11T02:05:06;11.30;;;6.07;;
6199;SDS011;3133;43.214;27.906;2023-02-11T02:07:41;8.73;;;5.90;;
6199;SDS011;3133;43.214;27.906;2023-02-11T02:10:13;12.10;;;7.75;;
6199;SDS011;3133;43.214;27.906;2023-02-11T02:12:45;8.70;;;6.33;;
6199;SDS011;3133;43.214;27.906;2023-02-11T02:15:20;12.73;;;7.83;;
6199;SDS011;3133;43.214;27.906;2023-02-11T02:17:56;11.23;;;7.40;;
6199;SDS011;3133;43.214;27.906;2023-02-11T02:23:34;8.57;;;5.93;;
6199;SDS011;3133;43.214;27.906;2023-02-11T02:26:32;10.75;;;7.25;;
6199;SDS011;3133;43.214;27.906;2023-02-11T02:29:44;10.10;;;6.43;;
6199;SDS011;3133;43.214;27.906;2023-02-11T02:32:34;21.50;;;7.33;;
6199;SDS011;3133;43.214;27.906;2023-02-11T02:35:10;10.50;;;6.00;;
6199;SDS011;3133;43.214;27.906;2023-02-11T02:37:49;8.90;;;5.70;;
6199;SDS011;3133;43.214;27.906;2023-02-11T02:40:22;12.90;;;7.90;;
6199;SDS011;3133;43.214;27.906;2023-02-11T02:42:52;14.27;;;8.43;;
6199;SDS011;3133;43.214;27.906;2023-02-11T02:45:20;11.93;;;8.00;;
6199;SDS011;3133;43.214;27.906;2023-02-11T02:47:49;15.40;;;9.43;;
6199;SDS011;3133;43.214;27.906;2023-02-11T02:50:17;14.70;;;7.87;;
6199;SDS011;3133;43.214;27.906;2023-02-11T02:52:51;14.23;;;8.07;;
6199;SDS011;3133;43.214;27.906;2023-02-11T02:55:31;17.80;;;8.63;;
6199;SDS011;3133;43.214;27.906;2023-02-11T02:58:15;13.27;;;8.13;;
6199;SDS011;3133;43.214;27.906;2023-02-11T03:01:20;18.40;;;9.03;;
6199;SDS011;3133;43.214;27.906;2023-02-11T03:03:56;11.00;;;6.70;;
6199;SDS011;3133;43.214;27.906;2023-02-11T03:06:32;13.00;;;7.83;;
6199;SDS011;3133;43.214;27.906;2023-02-11T03:09:06;12.90;;;7.03;;
6199;SDS011;3133;43.214;27.906;2023-02-11T03:11:38;12.17;;;7.53;;
6199;SDS011;3133;43.214;27.906;2023-02-11T03:14:07;13.20;;;7.27;;
6199;SDS011;3133;43.214;27.906;2023-02-11T03:16:36;12.07;;;7.70;;
6199;SDS011;3133;43.214;27.906;2023-02-11T03:19:07;20.77;;;9.33;;
6199;SDS011;3133;43.214;27.906;2023-02-11T03:21:38;12.87;;;8.50;;
6199;SDS011;3133;43.214;27.906;2023-02-11T03:24:09;15.17;;;7.93;;
6199;SDS011;3133;43.214;27.906;2023-02-11T03:26:42;12.80;;;7.40;;
6199;SDS011;3133;43.214;27.906;2023-02-11T03:29:14;15.70;;;9.63;;
6199;SDS011;3133;43.214;27.906;2023-02-11T03:31:46;14.85;;;7.60;;
6199;SDS011;3133;43.214;27.906;2023-02-11T03:34:22;19.08;;;9.60;;
6199;SDS011;3133;43.214;27.906;2023-02-11T03:36:56;13.70;;;7.33;;
6199;SDS011;3133;43.214;27.906;2023-02-11T03:39:29;19.77;;;10.60;;
6199;SDS011;3133;43.214;27.906;2023-02-11T03:42:00;15.33;;;9.70;;
6199;SDS011;3133;43.214;27.906;2023-02-11T03:44:30;17.40;;;9.13;;
6199;SDS011;3133;43.214;27.906;2023-02-11T03:47:02;20.73;;;9.63;;
6199;SDS011;3133;43.214;27.906;2023-02-11T03:49:33;14.50;;;8.70;;
6199;SDS011;3133;43.214;27.906;2023-02-11T03:52:03;19.33;;;8.90;;
6199;SDS011;3133;43.214;27.906;2023-02-11T03:54:32;18.50;;;7.60;;
6199;SDS011;3133;43.214;27.906;2023-02-11T03:57:00;14.68;;;8.07;;
6199;SDS011;3133;43.214;27.906;2023-02-11T03:59:28;17.33;;;7.80;;
6199;SDS011;3133;43.214;27.906;2023-02-11T04:01:55;11.67;;;7.33;;
6199;SDS011;3133;43.214;27.906;2023-02-11T04:04:23;12.17;;;7.97;;
6199;SDS011;3133;43.214;27.906;2023-02-11T04:06:52;16.35;;;8.30;;
6199;SDS011;3133;43.214;27.906;2023-02-11T04:09:18;11.23;;;7.43;;
6199;SDS011;3133;43.214;27.906;2023-02-11T04:11:45;13.37;;;7.93;;
6199;SDS011;3133;43.214;27.906;2023-02-11T04:14:12;10.80;;;7.27;;
6199;SDS011;3133;43.214;27.906;2023-02-11T04:16:39;15.55;;;7.70;;
6199;SDS011;3133;43.214;27.906;2023-02-11T04:19:06;12.98;;;7.25;;
6199;SDS011;3133;43.214;27.906;2023-02-11T04:21:33;11.18;;;7.13;;
6199;SDS011;3133;43.214;27.906;2023-02-11T04:24:01;19.90;;;8.23;;
6199;SDS011;3133;43.214;27.906;2023-02-11T04:26:28;8.20;;;6.55;;
6199;SDS011;3133;43.214;27.906;2023-02-11T04:28:55;16.43;;;8.50;;
6199;SDS011;3133;43.214;27.906;2023-02-11T04:31:21;16.53;;;8.47;;
6199;SDS011;3133;43.214;27.906;2023-02-11T04:33:48;20.30;;;8.07;;
6199;SDS011;3133;43.214;27.906;2023-02-11T04:36:15;17.50;;;7.22;;
6199;SDS011;3133;43.214;27.906;2023-02-11T04:38:42;9.90;;;6.67;;
6199;SDS011;3133;43.214;27.906;2023-02-11T04:41:10;10.30;;;6.40;;
6199;SDS011;3133;43.214;27.906;2023-02-11T04:43:37;9.17;;;5.93;;
6199;SDS011;3133;43.214;27.906;2023-02-11T04:46:04;18.52;;;6.47;;
6199;SDS011;3133;43.214;27.906;2023-02-11T04:48:31;15.37;;;8.83;;
6199;SDS011;3133;43.214;27.906;2023-02-11T04:50:59;19.57;;;7.97;;
6199;SDS011;3133;43.214;27.906;2023-02-11T04:53:26;8.97;;;6.33;;
6199;SDS011;3133;43.214;27.906;2023-02-11T04:55:53;10.13;;;7.30;;
6199;SDS011;3133;43.214;27.906;2023-02-11T04:58:21;12.27;;;7.83;;
6199;SDS011;3133;43.214;27.906;2023-02-11T05:00:48;12.63;;;6.97;;
6199;SDS011;3133;43.214;27.906;2023-02-11T05:03:15;11.60;;;7.53;;
6199;SDS011;3133;43.214;27.906;2023-02-11T05:05:42;12.53;;;7.47;;
6199;SDS011;3133;43.214;27.906;2023-02-11T05:08:09;10.17;;;7.20;;
6199;SDS011;3133;43.214;27.906;2023-02-11T05:10:36;16.10;;;8.53;;
6199;SDS011;3133;43.214;27.906;2023-02-11T05:13:03;20.30;;;8.17;;
6199;SDS011;3133;43.214;27.906;2023-02-11T05:15:32;12.65;;;8.18;;
6199;SDS011;3133;43.214;27.906;2023-02-11T05:17:59;9.98;;;7.32;;
6199;SDS011;3133;43.214;27.906;2023-02-11T05:20:25;11.65;;;7.78;;
6199;SDS011;3133;43.214;27.906;2023-02-11T05:22:52;12.45;;;8.32;;
6199;SDS011;3133;43.214;27.906;2023-02-11T05:25:19;15.45;;;9.15;;
6199;SDS011;3133;43.214;27.906;2023-02-11T05:27:46;12.30;;;8.00;;
6199;SDS011;3133;43.214;27.906;2023-02-11T05:30:13;12.32;;;8.02;;
6199;SDS011;3133;43.214;27.906;2023-02-11T05:32:41;9.02;;;6.50;;
6199;SDS011;3133;43.214;27.906;2023-02-11T05:35:08;13.30;;;7.82;;
6199;SDS011;3133;43.214;27.906;2023-02-11T05:37:35;10.67;;;7.53;;
6199;SDS011;3133;43.214;27.906;2023-02-11T05:40:02;12.52;;;7.35;;
6199;SDS011;3133;43.214;27.906;2023-02-11T05:42:30;16.67;;;9.47;;
6199;SDS011;3133;43.214;27.906;2023-02-11T05:44:57;9.05;;;6.70;;
6199;SDS011;3133;43.214;27.906;2023-02-11T05:47:23;16.67;;;9.65;;
6199;SDS011;3133;43.214;27.906;2023-02-11T05:49:52;14.23;;;9.20;;
6199;SDS011;3133;43.214;27.906;2023-02-11T05:52:19;11.52;;;8.00;;
6199;SDS011;3133;43.214;27.906;2023-02-11T05:54:46;12.90;;;8.60;;
6199;SDS011;3133;43.214;27.906;2023-02-11T05:57:13;14.98;;;8.40;;
6199;SDS011;3133;43.214;27.906;2023-02-11T05:59:40;16.17;;;8.48;;
6199;SDS011;3133;43.214;27.906;2023-02-11T06:02:07;15.07;;;9.00;;
6199;SDS011;3133;43.214;27.906;2023-02-11T06:04:34;12.33;;;9.00;;
6199;SDS011;3133;43.214;27.906;2023-02-11T06:07:03;16.23;;;9.30;;
6199;SDS011;3133;43.214;27.906;2023-02-11T06:09:30;17.00;;;9.60;;
6199;SDS011;3133;43.214;27.906;2023-02-11T06:11:57;13.80;;;9.40;;
6199;SDS011;3133;43.214;27.906;2023-02-11T06:14:24;15.07;;;8.27;;
6199;SDS011;3133;43.214;27.906;2023-02-11T06:16:50;16.23;;;9.17;;
6199;SDS011;3133;43.214;27.906;2023-02-11T06:19:17;15.07;;;8.53;;
6199;SDS011;3133;43.214;27.906;2023-02-11T06:21:44;15.53;;;8.40;;
6199;SDS011;3133;43.214;27.906;2023-02-11T06:24:13;12.80;;;8.30;;
6199;SDS011;3133;43.214;27.906;2023-02-11T06:26:39;11.37;;;7.27;;
6199;SDS011;3133;43.214;27.906;2023-02-11T06:29:06;10.93;;;6.57;;
6199;SDS011;3133;43.214;27.906;2023-02-11T06:31:35;17.10;;;7.50;;
6199;SDS011;3133;43.214;27.906;2023-02-11T06:34:02;14.97;;;8.07;;
6199;SDS011;3133;43.214;27.906;2023-02-11T06:36:29;13.60;;;8.30;;
6199;SDS011;3133;43.214;27.906;2023-02-11T06:38:56;18.73;;;9.13;;
6199;SDS011;3133;43.214;27.906;2023-02-11T06:41:25;12.20;;;8.00;;
6199;SDS011;3133;43.214;27.906;2023-02-11T06:43:52;12.90;;;7.47;;
6199;SDS011;3133;43.214;27.906;2023-02-11T06:46:19;15.67;;;9.23;;
6199;SDS011;3133;43.214;27.906;2023-02-11T06:48:46;15.77;;;8.07;;
6199;SDS011;3133;43.214;27.906;2023-02-11T06:51:14;24.00;;;10.40;;
6199;SDS011;3133;43.214;27.906;2023-02-11T06:53:52;17.50;;;10.10;;
6199;SDS011;3133;43.214;27.906;2023-02-11T06:56:21;17.80;;;9.10;;
6199;SDS011;3133;43.214;27.906;2023-02-11T06:58:53;15.00;;;9.40;;
6199;SDS011;3133;43.214;27.906;2023-02-11T07:01:26;12.97;;;8.97;;
6199;SDS011;3133;43.214;27.906;2023-02-11T07:04:07;14.43;;;8.20;;
6199;SDS011;3133;43.214;27.906;2023-02-11T07:06:39;20.23;;;9.90;;
6199;SDS011;3133;43.214;27.906;2023-02-11T07:09:07;14.93;;;9.93;;
6199;SDS011;3133;43.214;27.906;2023-02-11T07:11:34;19.57;;;11.10;;
6199;SDS011;3133;43.214;27.906;2023-02-11T07:19:47;20.47;;;11.97;;
6199;SDS011;3133;43.214;27.906;2023-02-11T07:22:15;17.17;;;10.43;;
6199;SDS011;3133;43.214;27.906;2023-02-11T07:24:42;27.77;;;12.27;;
6199;SDS011;3133;43.214;27.906;2023-02-11T07:27:13;21.80;;;12.37;;
6199;SDS011;3133;43.214;27.906;2023-02-11T07:29:40;20.67;;;12.40;;
6199;SDS011;3133;43.214;27.906;2023-02-11T07:32:09;23.90;;;11.50;;
6199;SDS011;3133;43.214;27.906;2023-02-11T07:34:51;17.73;;;11.73;;
6199;SDS011;3133;43.214;27.906;2023-02-11T07:37:22;17.70;;;11.43;;
6199;SDS011;3133;43.214;27.906;2023-02-11T07:39:57;21.93;;;12.60;;
6199;SDS011;3133;43.214;27.906;2023-02-11T07:42:39;17.57;;;11.80;;
6199;SDS011;3133;43.214;27.906;2023-02-11T07:45:07;19.70;;;11.77;;
6199;SDS011;3133;43.214;27.906;2023-02-11T07:47:34;22.87;;;12.03;;
6199;SDS011;3133;43.214;27.906;2023-02-11T07:56:47;11.90;;;7.87;;
6199;SDS011;3133;43.214;27.906;2023-02-11T07:59:24;20.70;;;9.27;;
6199;SDS011;3133;43.214;27.906;2023-02-11T08:01:59;16.10;;;8.13;;
6199;SDS011;3133;43.214;27.906;2023-02-11T08:04:27;15.17;;;8.83;;
6199;SDS011;3133;43.214;27.906;2023-02-11T08:07:14;12.30;;;8.80;;
6199;SDS011;3133;43.214;27.906;2023-02-11T08:09:42;10.77;;;7.97;;
6199;SDS011;3133;43.214;27.906;2023-02-11T08:12:11;20.00;;;9.17;;
6199;SDS011;3133;43.214;27.906;2023-02-11T08:14:39;14.57;;;8.53;;
6199;SDS011;3133;43.214;27.906;2023-02-11T08:17:07;12.73;;;8.80;;
6199;SDS011;3133;43.214;27.906;2023-02-11T08:19:34;18.53;;;9.03;;
6199;SDS011;3133;43.214;27.906;2023-02-11T08:22:01;18.10;;;9.83;;
6199;SDS011;3133;43.214;27.906;2023-02-11T08:24:29;16.53;;;9.93;;
6199;SDS011;3133;43.214;27.906;2023-02-11T08:43:08;11.37;;;7.53;;
6199;SDS011;3133;43.214;27.906;2023-02-11T08:45:35;11.17;;;7.90;;
6199;SDS011;3133;43.214;27.906;2023-02-11T08:48:12;10.30;;;7.60;;
6199;SDS011;3133;43.214;27.906;2023-02-11T08:50:39;20.40;;;9.80;;
6199;SDS011;3133;43.214;27.906;2023-02-11T08:53:20;18.07;;;7.97;;
6199;SDS011;3133;43.214;27.906;2023-02-11T08:55:58;35.07;;;8.80;;
6199;SDS011;3133;43.214;27.906;2023-02-11T08:58:26;19.20;;;9.20;;
6199;SDS011;3133;43.214;27.906;2023-02-11T09:01:07;11.93;;;7.83;;
6199;SDS011;3133;43.214;27.906;2023-02-11T09:07:17;11.90;;;8.30;;
6199;SDS011;3133;43.214;27.906;2023-02-11T09:10:06;13.83;;;9.20;;
6199;SDS011;3133;43.214;27.906;2023-02-11T09:19:14;13.07;;;8.53;;
6199;SDS011;3133;43.214;27.906;2023-02-11T09:21:50;13.37;;;7.77;;
6199;SDS011;3133;43.214;27.906;2023-02-11T09:24:22;11.20;;;7.40;;
6199;SDS011;3133;43.214;27.906;2023-02-11T09:30:11;13.77;;;8.80;;
6199;SDS011;3133;43.214;27.906;2023-02-11T09:32:38;18.00;;;8.80;;
6199;SDS011;3133;43.214;27.906;2023-02-11T09:35:24;12.50;;;7.40;;
6199;SDS011;3133;43.214;27.906;2023-02-11T09:38:07;15.27;;;7.63;;
6199;SDS011;3133;43.214;27.906;2023-02-11T09:43:56;13.03;;;8.27;;
6199;SDS011;3133;43.214;27.906;2023-02-11T09:46:36;17.43;;;9.00;;
6199;SDS011;3133;43.214;27.906;2023-02-11T09:52:31;12.90;;;8.80;;
6199;SDS011;3133;43.214;27.906;2023-02-11T09:58:25;11.67;;;7.57;;
6199;SDS011;3133;43.214;27.906;2023-02-11T10:00:57;16.50;;;8.30;;
6199;SDS011;3133;43.214;27.906;2023-02-11T10:06:52;17.77;;;9.00;;
6199;SDS011;3133;43.214;27.906;2023-02-11T10:09:30;23.17;;;9.80;;
6199;SDS011;3133;43.214;27.906;2023-02-11T10:15:36;16.10;;;9.37;;
6199;SDS011;3133;43.214;27.906;2023-02-11T10:18:16;19.57;;;9.27;;
6199;SDS011;3133;43.214;27.906;2023-02-11T10:21:02;11.67;;;7.67;;
6199;SDS011;3133;43.214;27.906;2023-02-11T10:23:45;15.77;;;9.57;;
6199;SDS011;3133;43.214;27.906;2023-02-11T10:29:40;13.50;;;8.43;;
6199;SDS011;3133;43.214;27.906;2023-02-11T10:35:32;16.90;;;9.33;;
6199;SDS011;3133;43.214;27.906;2023-02-11T10:38:00;13.87;;;8.40;;
6199;SDS011;3133;43.214;27.906;2023-02-11T10:43:49;12.97;;;7.80;;
6199;SDS011;3133;43.214;27.906;2023-02-11T10:46:19;13.33;;;8.10;;
6199;SDS011;3133;43.214;27.906;2023-02-11T11:58:02;19.43;;;9.90;;
6199;SDS011;3133;43.214;27.906;2023-02-11T12:07:07;22.73;;;9.07;;
6199;SDS011;3133;43.214;27.906;2023-02-11T12:13:13;11.43;;;7.53;;
6199;SDS011;3133;43.214;27.906;2023-02-11T12:25:26;12.87;;;7.20;;
6199;SDS011;3133;43.214;27.906;2023-02-11T12:45:15;12.33;;;7.87;;
6199;SDS011;3133;43.214;27.906;2023-02-11T13:31:31;10.47;;;6.10;;
6199;SDS011;3133;43.214;27.906;2023-02-11T13:37:21;11.87;;;6.67;;
6199;SDS011;3133;43.214;27.906;2023-02-11T13:40:00;8.03;;;6.07;;
6199;SDS011;3133;43.214;27.906;2023-02-11T13:45:57;9.80;;;6.50;;
6199;SDS011;3133;43.214;27.906;2023-02-11T13:51:49;9.97;;;6.43;;
6199;SDS011;3133;43.214;27.906;2023-02-11T13:57:39;9.30;;;6.37;;
6199;SDS011;3133;43.214;27.906;2023-02-11T14:03:29;9.23;;;6.27;;
6199;SDS011;3133;43.214;27.906;2023-02-11T14:06:16;8.30;;;5.87;;
6199;SDS011;3133;43.214;27.906;2023-02-11T14:12:33;8.23;;;6.13;;
6199;SDS011;3133;43.214;27.906;2023-02-11T14:21:09;8.50;;;5.60;;
6199;SDS011;3133;43.214;27.906;2023-02-11T14:27:00;10.40;;;6.27;;
6199;SDS011;3133;43.214;27.906;2023-02-11T14:35:58;9.13;;;6.33;;
6199;SDS011;3133;43.214;27.906;2023-02-11T14:41:54;9.80;;;6.07;;
6199;SDS011;3133;43.214;27.906;2023-02-11T14:44:28;11.90;;;5.93;;
6199;SDS011;3133;43.214;27.906;2023-02-11T14:50:21;9.97;;;6.80;;
6199;SDS011;3133;43.214;27.906;2023-02-11T14:52:51;8.80;;;5.90;;
6199;SDS011;3133;43.214;27.906;2023-02-11T14:58:44;10.87;;;6.57;;
6199;SDS011;3133;43.214;27.906;2023-02-11T15:04:33;14.20;;;7.07;;
6199;SDS011;3133;43.214;27.906;2023-02-11T15:10:27;10.30;;;6.67;;
6199;SDS011;3133;43.214;27.906;2023-02-11T15:16:19;12.83;;;8.10;;
6199;SDS011;3133;43.214;27.906;2023-02-11T15:18:52;14.07;;;8.30;;
6199;SDS011;3133;43.214;27.906;2023-02-11T15:27:48;18.37;;;8.77;;
6199;SDS011;3133;43.214;27.906;2023-02-11T15:33:38;14.03;;;9.17;;
6199;SDS011;3133;43.214;27.906;2023-02-11T15:36:11;19.83;;;9.53;;
6199;SDS011;3133;43.214;27.906;2023-02-11T15:50:57;18.03;;;8.63;;
6199;SDS011;3133;43.214;27.906;2023-02-11T15:53:34;14.43;;;8.37;;
6199;SDS011;3133;43.214;27.906;2023-02-11T15:59:26;12.67;;;7.50;;
6199;SDS011;3133;43.214;27.906;2023-02-11T16:02:06;15.87;;;8.57;;
6199;SDS011;3133;43.214;27.906;2023-02-11T16:14:01;16.63;;;9.50;;
6199;SDS011;3133;43.214;27.906;2023-02-11T16:22:45;20.67;;;10.43;;
6199;SDS011;3133;43.214;27.906;2023-02-11T16:28:40;19.00;;;10.57;;
6199;SDS011;3133;43.214;27.906;2023-02-11T16:34:28;25.80;;;13.07;;
6199;SDS011;3133;43.214;27.906;2023-02-11T16:40:18;21.47;;;11.47;;
6199;SDS011;3133;43.214;27.906;2023-02-11T16:42:47;30.70;;;12.70;;
6199;SDS011;3133;43.214;27.906;2023-02-11T16:48:36;33.03;;;16.80;;
6199;SDS011;3133;43.214;27.906;2023-02-11T16:51:09;29.20;;;16.33;;
6199;SDS011;3133;43.214;27.906;2023-02-11T17:00:04;28.40;;;16.10;;
6199;SDS011;3133;43.214;27.906;2023-02-11T17:05:55;27.93;;;15.77;;
6199;SDS011;3133;43.214;27.906;2023-02-11T17:11:43;35.10;;;14.33;;
6199;SDS011;3133;43.214;27.906;2023-02-11T17:14:18;24.10;;;13.33;;
6199;SDS011;3133;43.214;27.906;2023-02-11T17:20:10;19.43;;;12.77;;
6199;SDS011;3133;43.214;27.906;2023-02-11T17:22:37;25.47;;;13.37;;
6199;SDS011;3133;43.214;27.906;2023-02-11T17:28:26;23.50;;;13.70;;
6199;SDS011;3133;43.214;27.906;2023-02-11T17:34:21;25.73;;;15.10;;
6199;SDS011;3133;43.214;27.906;2023-02-11T17:40:11;20.77;;;13.70;;
6199;SDS011;3133;43.214;27.906;2023-02-11T17:51:44;31.03;;;13.70;;
6199;SDS011;3133;43.214;27.906;2023-02-11T17:57:32;27.23;;;14.27;;
6199;SDS011;3133;43.214;27.906;2023-02-11T18:06:18;23.73;;;11.27;;
6199;SDS011;3133;43.214;27.906;2023-02-11T18:08:55;23.37;;;13.13;;
6199;SDS011;3133;43.214;27.906;2023-02-11T18:14:50;22.40;;;11.63;;
6199;SDS011;3133;43.214;27.906;2023-02-11T18:17:18;23.10;;;10.17;;
6199;SDS011;3133;43.214;27.906;2023-02-11T18:26:05;21.07;;;11.13;;
6199;SDS011;3133;43.214;27.906;2023-02-11T18:35:10;15.70;;;9.53;;
6199;SDS011;3133;43.214;27.906;2023-02-11T18:41:01;18.33;;;8.97;;
6199;SDS011;3133;43.214;27.906;2023-02-11T18:46:50;18.80;;;9.70;;
6199;SDS011;3133;43.214;27.906;2023-02-11T18:49:23;15.53;;;9.23;;
6199;SDS011;3133;43.214;27.906;2023-02-11T18:55:12;17.93;;;10.50;;
6199;SDS011;3133;43.214;27.906;2023-02-11T19:56:35;16.53;;;11.70;;
6199;SDS011;3133;43.214;27.906;2023-02-11T20:02:24;20.37;;;12.33;;
6199;SDS011;3133;43.214;27.906;2023-02-11T20:08:12;26.57;;;13.83;;
6199;SDS011;3133;43.214;27.906;2023-02-11T20:10:41;20.90;;;13.27;;
6199;SDS011;3133;43.214;27.906;2023-02-11T20:16:31;27.03;;;15.87;;
6199;SDS011;3133;43.214;27.906;2023-02-11T20:18:59;34.83;;;18.57;;
6199;SDS011;3133;43.214;27.906;2023-02-11T20:24:48;37.00;;;18.80;;
6199;SDS011;3133;43.214;27.906;2023-02-11T20:27:14;31.17;;;18.13;;
6199;SDS011;3133;43.214;27.906;2023-02-11T20:39:17;28.13;;;15.47;;
6199;SDS011;3133;43.214;27.906;2023-02-11T20:41:51;30.13;;;17.30;;
6199;SDS011;3133;43.214;27.906;2023-02-11T20:50:42;28.17;;;17.23;;
6199;SDS011;3133;43.214;27.906;2023-02-11T20:56:30;30.60;;;16.93;;
6199;SDS011;3133;43.214;27.906;2023-02-11T20:59:04;40.67;;;17.30;;
6199;SDS011;3133;43.214;27.906;2023-02-11T21:07:20;29.55;;;18.77;;
6199;SDS011;3133;43.214;27.906;2023-02-11T21:15:55;35.23;;;21.03;;
6199;SDS011;3133;43.214;27.906;2023-02-11T21:21:43;42.67;;;20.73;;
6199;SDS011;3133;43.214;27.906;2023-02-11T21:27:33;36.70;;;17.73;;
6199;SDS011;3133;43.214;27.906;2023-02-11T21:30:00;25.90;;;14.27;;
6199;SDS011;3133;43.214;27.906;2023-02-11T21:35:49;21.67;;;13.77;;
6199;SDS011;3133;43.214;27.906;2023-02-11T21:38:19;19.27;;;12.27;;
6199;SDS011;3133;43.214;27.906;2023-02-11T21:44:09;27.57;;;13.60;;
6199;SDS011;3133;43.214;27.906;2023-02-11T21:46:42;29.00;;;13.43;;
6199;SDS011;3133;43.214;27.906;2023-02-11T21:59:16;22.30;;;12.43;;
6199;SDS011;3133;43.214;27.906;2023-02-11T22:01:48;21.83;;;11.93;;
6199;SDS011;3133;43.214;27.906;2023-02-11T22:07:38;21.50;;;12.17;;
6199;SDS011;3133;43.214;27.906;2023-02-11T22:10:06;22.00;;;11.07;;
6199;SDS011;3133;43.214;27.906;2023-02-11T22:15:57;17.47;;;10.63;;
6199;SDS011;3133;43.214;27.906;2023-02-11T22:18:30;23.73;;;11.37;;
6199;SDS011;3133;43.214;27.906;2023-02-11T22:24:18;14.20;;;9.13;;
6199;SDS011;3133;43.214;27.906;2023-02-11T22:30:07;15.53;;;9.30;;
6199;SDS011;3133;43.214;27.906;2023-02-11T22:32:37;27.17;;;10.73;;
6199;SDS011;3133;43.214;27.906;2023-02-11T22:38:31;13.47;;;9.07;;
6199;SDS011;3133;43.214;27.906;2023-02-11T22:44:20;19.77;;;11.13;;
6199;SDS011;3133;43.214;27.906;2023-02-11T22:46:53;15.57;;;9.93;;
6199;SDS011;3133;43.214;27.906;2023-02-11T22:52:43;25.37;;;12.63;;
6199;SDS011;3133;43.214;27.906;2023-02-11T22:55:10;26.30;;;15.17;;
6199;SDS011;3133;43.214;27.906;2023-02-11T23:00:59;38.77;;;22.40;;
6199;SDS011;3133;43.214;27.906;2023-02-11T23:03:32;33.83;;;20.40;;
6199;SDS011;3133;43.214;27.906;2023-02-11T23:09:22;31.40;;;18.47;;
6199;SDS011;3133;43.214;27.906;2023-02-11T23:11:55;28.47;;;17.60;;
6199;SDS011;3133;43.214;27.906;2023-02-11T23:14:22;43.43;;;17.53;;
6199;SDS011;3133;43.214;27.906;2023-02-11T23:16:54;27.27;;;14.90;;
6199;SDS011;3133;43.214;27.906;2023-02-11T23:22:42;23.37;;;13.07;;
6199;SDS011;3133;43.214;27.906;2023-02-11T23:28:32;23.47;;;12.03;;
6199;SDS011;3133;43.214;27.906;2023-02-11T23:34:20;19.53;;;12.33;;
6199;SDS011;3133;43.214;27.906;2023-02-11T23:36:54;21.50;;;12.20;;
6199;SDS011;3133;43.214;27.906;2023-02-11T23:42:44;17.30;;;11.57;;
6199;SDS011;3133;43.214;27.906;2023-02-11T23:45:15;25.40;;;13.23;;
6199;SDS011;3133;43.214;27.906;2023-02-11T23:51:04;19.40;;;12.30;;
